Time;durP1;ratioP1;P1;durP2;ratioP2;P2;SDS_P1;SDS_P2;PMS_P1;PMS_P2;Temp;Humidity;BMP_temperature;BMP_pressure;BME280_temperature;BME280_humidity;BME280_pressure;Samples;Min_cycle;Max_cycle;Signal;HPM_P1;HPM_P2
2023/11/05 00:01:53;;;;;;;;;;;;;;;15.35;nan;98159.84;5071187;28;19920;-90
2023/11/05 00:04:18;;;;;;;;;;;;;;;15.32;nan;98160.53;5071274;28;20015;-91
2023/11/05 00:06:43;;;;;;;;;;;;;;;15.33;nan;98153.22;5074048;28;19923;-90
2023/11/05 00:09:08;;;;;;;;;;;;;;;15.30;nan;98148.53;5075860;28;19916;-90
2023/11/05 00:11:35;;;;;;;;;;;;;;;15.30;nan;98162.78;5070612;28;19920;-91
2023/11/05 00:14:00;;;;;;;;;;;;;;;15.29;nan;98153.13;5067779;28;19962;-90
2023/11/05 00:16:25;;;;;;;;;;;;;;;15.28;nan;98156.97;5069553;28;19924;-91
2023/11/05 00:18:51;;;;;;;;;;;;;;;15.25;nan;98146.81;5069505;28;19923;-90
2023/11/05 00:21:17;;;;;;;;;;;;;;;15.27;nan;98150.00;5066190;28;19978;-90
2023/11/05 00:23:42;;;;;;;;;;;;;;;15.28;nan;98148.88;5071784;28;20007;-90
2023/11/05 00:26:07;;;;;;;;;;;;;;;15.26;nan;98143.03;5074940;28;20438;-91
2023/11/05 00:28:32;;;;;;;;;;;;;;;15.22;nan;98152.13;5070582;28;20012;-90
2023/11/05 00:31:00;;;;;;;;;;;;;;;15.14;nan;98143.06;5072930;28;20457;-91
2023/11/05 00:33:26;;;;;;;;;;;;;;;15.15;nan;98138.44;5070907;28;19999;-90
2023/11/05 00:35:51;;;;;;;;;;;;;;;15.20;nan;98149.78;5072833;28;20003;-91
2023/11/05 00:38:16;;;;;;;;;;;;;;;15.20;nan;98144.38;5070797;28;19916;-89
2023/11/05 00:40:41;;;;;;;;;;;;;;;15.21;nan;98150.56;5071560;28;19916;-91
2023/11/05 00:43:07;;;;;;;;;;;;;;;15.25;nan;98135.25;5070773;28;20040;-91
2023/11/05 00:45:32;;;;;;;;;;;;;;;15.27;nan;98133.03;5071264;28;20388;-90
2023/11/05 00:47:57;;;;;;;;;;;;;;;15.27;nan;98139.19;5069649;28;19913;-91
2023/11/05 00:50:23;;;;;;;;;;;;;;;15.28;nan;98142.69;5066908;28;19921;-91
2023/11/05 00:52:48;;;;;;;;;;;;;;;15.26;nan;98129.53;5070358;28;19939;-90
2023/11/05 00:55:14;;;;;;;;;;;;;;;15.29;nan;98122.66;5071594;28;20465;-91
2023/11/05 00:57:39;;;;;;;;;;;;;;;15.29;nan;98120.75;5073276;28;19974;-91
2023/11/05 01:00:05;;;;;;;;;;;;;;;15.30;nan;98127.72;5075916;28;19916;-90
2023/11/05 01:02:30;;;;;;;;;;;;;;;15.28;nan;98124.59;5066779;28;20406;-91
2023/11/05 01:04:56;;;;;;;;;;;;;;;15.30;nan;98119.63;5065418;28;19916;-91
2023/11/05 01:07:21;;;;;;;;;;;;;;;15.34;nan;98122.41;5062504;28;20357;-91
2023/11/05 01:09:46;;;;;;;;;;;;;;;15.33;nan;98123.56;5070843;28;20019;-90
2023/11/05 01:12:12;;;;;;;;;;;;;;;15.36;nan;98110.16;5064175;28;19925;-91
2023/11/05 01:14:37;;;;;;;;;;;;;;;15.33;nan;98104.66;5072638;28;20038;-90
2023/11/05 01:17:02;;;;;;;;;;;;;;;15.30;nan;98095.34;5067880;28;19917;-91
2023/11/05 01:19:28;;;;;;;;;;;;;;;15.30;nan;98110.75;5068407;28;20396;-90
2023/11/05 01:21:53;;;;;;;;;;;;;;;15.27;nan;98106.84;5065257;28;19916;-90
2023/11/05 01:24:19;;;;;;;;;;;;;;;15.31;nan;98091.53;5064757;28;20396;-91
2023/11/05 01:26:44;;;;;;;;;;;;;;;15.33;nan;98094.66;5066626;28;19916;-91
2023/11/05 01:29:09;;;;;;;;;;;;;;;15.33;nan;98081.16;5066486;28;19924;-91
2023/11/05 01:31:35;;;;;;;;;;;;;;;15.35;nan;98088.91;5071044;28;19946;-91
2023/11/05 01:34:00;;;;;;;;;;;;;;;15.32;nan;98085.00;5066731;28;19924;-90
2023/11/05 01:36:25;;;;;;;;;;;;;;;15.31;nan;98080.72;5067019;28;19944;-90
2023/11/05 01:38:51;;;;;;;;;;;;;;;15.32;nan;98086.91;5065091;28;19962;-90
2023/11/05 01:41:16;;;;;;;;;;;;;;;15.32;nan;98090.41;5068188;28;19975;-90
2023/11/05 01:43:41;;;;;;;;;;;;;;;15.30;nan;98089.97;5075279;28;19923;-91
2023/11/05 01:46:07;;;;;;;;;;;;;;;15.34;nan;98090.84;5072535;28;19970;-90
2023/11/05 01:48:32;;;;;;;;;;;;;;;15.35;nan;98092.41;5068331;28;19920;-90
2023/11/05 01:51:00;;;;;;;;;;;;;;;15.35;nan;98084.31;5071895;28;19924;-90
2023/11/05 01:53:26;;;;;;;;;;;;;;;15.35;nan;98080.81;5066392;28;19928;-90
2023/11/05 01:55:51;;;;;;;;;;;;;;;15.38;nan;98094.41;5071202;28;19916;-91
2023/11/05 01:58:17;;;;;;;;;;;;;;;15.40;nan;98088.66;5068519;28;19923;-90
2023/11/05 02:00:42;;;;;;;;;;;;;;;15.38;nan;98091.72;5070565;28;20288;-90
2023/11/05 02:03:08;;;;;;;;;;;;;;;15.40;nan;98075.97;5068502;28;19916;-91
2023/11/05 02:05:34;;;;;;;;;;;;;;;15.41;nan;98079.44;5069442;28;20080;-90
2023/11/05 02:08:00;;;;;;;;;;;;;;;15.38;nan;98085.53;5066478;28;19916;-90
2023/11/05 02:10:25;;;;;;;;;;;;;;;15.37;nan;98073.94;5066331;28;19920;-91
2023/11/05 02:13:02;;;;;;;;;;;;;;;15.38;nan;98080.13;5072842;28;19962;-90
2023/11/05 02:15:28;;;;;;;;;;;;;;;15.32;nan;98068.81;5065515;28;20426;-90
2023/11/05 02:17:53;;;;;;;;;;;;;;;15.34;nan;98082.75;5063590;28;19986;-90
2023/11/05 02:20:19;;;;;;;;;;;;;;;15.33;nan;98069.59;5068146;28;19916;-91
2023/11/05 02:22:46;;;;;;;;;;;;;;;15.35;nan;98060.03;5068700;28;20391;-90
2023/11/05 02:25:18;;;;;;;;;;;;;;;15.39;nan;98063.59;5070312;28;19920;-90
2023/11/05 02:27:43;;;;;;;;;;;;;;;15.43;nan;98056.38;5067669;28;20380;-91
2023/11/05 02:30:09;;;;;;;;;;;;;;;15.42;nan;98062.13;5067633;28;19928;-90
2023/11/05 02:32:34;;;;;;;;;;;;;;;15.44;nan;98054.50;5070880;28;19922;-91
2023/11/05 02:34:59;;;;;;;;;;;;;;;15.46;nan;98056.84;5069822;28;19999;-91
2023/11/05 02:37:24;;;;;;;;;;;;;;;15.47;nan;98055.72;5062006;28;19919;-90
2023/11/05 02:39:50;;;;;;;;;;;;;;;15.50;nan;98039.59;5070742;28;20410;-90
2023/11/05 02:42:15;;;;;;;;;;;;;;;15.59;nan;98048.34;5069927;28;19920;-90
2023/11/05 02:44:40;;;;;;;;;;;;;;;15.57;nan;98052.50;5074696;28;19939;-91
2023/11/05 02:47:06;;;;;;;;;;;;;;;15.61;nan;98034.50;5075226;28;19999;-90
2023/11/05 02:49:31;;;;;;;;;;;;;;;15.58;nan;98049.44;5067341;28;20323;-90
2023/11/05 02:51:56;;;;;;;;;;;;;;;15.58;nan;98041.34;5069795;28;19912;-91
2023/11/05 02:54:22;;;;;;;;;;;;;;;15.58;nan;98035.94;5072448;28;19927;-91
2023/11/05 02:56:47;;;;;;;;;;;;;;;15.61;nan;98045.28;5072615;28;19913;-90
2023/11/05 02:59:17;;;;;;;;;;;;;;;15.60;nan;98046.44;5075075;28;19931;-90
2023/11/05 03:01:42;;;;;;;;;;;;;;;15.56;nan;98038.22;5074525;28;19975;-91
2023/11/05 03:04:07;;;;;;;;;;;;;;;15.54;nan;98029.69;5075607;28;20282;-91
2023/11/05 03:06:33;;;;;;;;;;;;;;;15.54;nan;98042.41;5068800;28;19938;-91
2023/11/05 03:08:58;;;;;;;;;;;;;;;15.55;nan;98028.56;5068692;28;19917;-90
2023/11/05 03:11:23;;;;;;;;;;;;;;;15.57;nan;98033.59;5075274;28;19912;-91
2023/11/05 03:13:49;;;;;;;;;;;;;;;15.62;nan;98028.00;5071824;28;19916;-91
2023/11/05 03:16:14;;;;;;;;;;;;;;;15.67;nan;98025.03;5069169;28;19995;-91
2023/11/05 03:18:40;;;;;;;;;;;;;;;15.64;nan;98026.53;5071331;28;19921;-91
2023/11/05 03:21:05;;;;;;;;;;;;;;;15.61;nan;98024.50;5069984;28;19944;-90
2023/11/05 03:23:30;;;;;;;;;;;;;;;15.63;nan;98026.88;5070969;28;19916;-90
2023/11/05 03:25:56;;;;;;;;;;;;;;;15.62;nan;98023.38;5072584;28;20007;-91
2023/11/05 03:28:21;;;;;;;;;;;;;;;15.62;nan;98018.00;5074350;28;19951;-91
2023/11/05 03:30:47;;;;;;;;;;;;;;;15.64;nan;98018.41;5071955;28;20015;-90
2023/11/05 03:33:12;;;;;;;;;;;;;;;15.62;nan;98009.09;5068037;28;19924;-89
2023/11/05 03:35:38;;;;;;;;;;;;;;;15.57;nan;98017.41;5074527;28;20424;-90
2023/11/05 03:38:03;;;;;;;;;;;;;;;15.57;nan;98002.00;5079718;28;19919;-90
2023/11/05 03:40:28;;;;;;;;;;;;;;;15.56;nan;98005.03;5072165;28;20014;-90
2023/11/05 03:42:54;;;;;;;;;;;;;;;15.56;nan;98013.16;5064719;28;19916;-90
2023/11/05 03:45:19;;;;;;;;;;;;;;;15.53;nan;98006.53;5065597;28;20364;-90
2023/11/05 03:47:44;;;;;;;;;;;;;;;15.53;nan;98005.75;5070576;28;19966;-90
2023/11/05 03:50:10;;;;;;;;;;;;;;;15.49;nan;97999.47;5072909;28;20019;-91
2023/11/05 03:52:35;;;;;;;;;;;;;;;15.47;nan;98001.75;5068240;28;19922;-91
2023/11/05 03:55:00;;;;;;;;;;;;;;;15.40;nan;98011.22;5068665;28;19989;-91
2023/11/05 03:57:26;;;;;;;;;;;;;;;15.30;nan;98006.34;5065371;28;19920;-91
2023/11/05 03:59:51;;;;;;;;;;;;;;;15.26;nan;98002.75;5067847;28;19982;-91
2023/11/05 04:02:17;;;;;;;;;;;;;;;15.26;nan;98004.66;5067031;28;19917;-91
2023/11/05 04:04:46;;;;;;;;;;;;;;;15.24;nan;97998.81;5062503;28;19925;-91
2023/11/05 04:07:12;;;;;;;;;;;;;;;15.24;nan;97996.13;5070713;28;19928;-90
2023/11/05 04:09:37;;;;;;;;;;;;;;;15.21;nan;98004.91;5068479;28;20288;-90
2023/11/05 04:12:03;;;;;;;;;;;;;;;15.21;nan;97989.50;5070441;28;19920;-90
2023/11/05 04:14:29;;;;;;;;;;;;;;;15.23;nan;97991.84;5069714;28;19916;-90
2023/11/05 04:16:54;;;;;;;;;;;;;;;15.21;nan;97992.19;5071139;28;19916;-90
2023/11/05 04:19:20;;;;;;;;;;;;;;;15.21;nan;97989.50;5074881;28;19923;-90
2023/11/05 04:21:45;;;;;;;;;;;;;;;15.19;nan;97989.06;5065745;28;19966;-91
2023/11/05 04:24:11;;;;;;;;;;;;;;;15.22;nan;97991.06;5070474;28;19916;-90
2023/11/05 04:26:36;;;;;;;;;;;;;;;15.23;nan;97992.63;5071442;28;19923;-91
2023/11/05 04:29:01;;;;;;;;;;;;;;;15.27;nan;97987.38;5071277;28;19916;-90
2023/11/05 04:31:26;;;;;;;;;;;;;;;15.29;nan;97985.88;5064667;28;19921;-90
2023/11/05 04:33:52;;;;;;;;;;;;;;;15.32;nan;97989.78;5071004;28;20001;-91
2023/11/05 04:36:17;;;;;;;;;;;;;;;15.34;nan;97982.94;5068749;28;20390;-90
2023/11/05 04:38:42;;;;;;;;;;;;;;;15.36;nan;97977.19;5069053;28;19924;-90
2023/11/05 04:41:08;;;;;;;;;;;;;;;15.40;nan;97980.75;5068367;28;19982;-90
2023/11/05 04:43:33;;;;;;;;;;;;;;;15.43;nan;97980.81;5071753;28;19923;-90
2023/11/05 04:45:59;;;;;;;;;;;;;;;15.43;nan;97983.53;5069453;28;20365;-91
2023/11/05 04:48:24;;;;;;;;;;;;;;;15.39;nan;97984.56;5062334;28;19939;-90
2023/11/05 04:50:50;;;;;;;;;;;;;;;15.39;nan;97987.28;5066495;28;20403;-90
2023/11/05 04:53:15;;;;;;;;;;;;;;;15.38;nan;97991.09;5067227;28;19923;-90
2023/11/05 04:55:40;;;;;;;;;;;;;;;15.34;nan;97993.72;5065130;28;19978;-90
2023/11/05 04:58:06;;;;;;;;;;;;;;;15.34;nan;97993.72;5068027;28;20344;-90
2023/11/05 05:00:31;;;;;;;;;;;;;;;15.34;nan;97987.53;5068375;28;19917;-90
2023/11/05 05:02:56;;;;;;;;;;;;;;;15.38;nan;97991.09;5062975;28;19917;-90
2023/11/05 05:05:21;;;;;;;;;;;;;;;15.39;nan;97990.75;5066401;28;20365;-91
2023/11/05 05:07:47;;;;;;;;;;;;;;;15.38;nan;97989.19;5068633;28;19916;-89
2023/11/05 05:10:12;;;;;;;;;;;;;;;15.39;nan;97988.06;5074152;28;19928;-89
2023/11/05 05:12:37;;;;;;;;;;;;;;;15.40;nan;97981.53;5067719;28;19925;-91
2023/11/05 05:15:05;;;;;;;;;;;;;;;15.41;nan;97985.78;5068705;28;19956;-90
2023/11/05 05:17:30;;;;;;;;;;;;;;;15.43;nan;97980.81;5066046;28;20016;-91
2023/11/05 05:19:56;;;;;;;;;;;;;;;15.45;nan;97985.13;5067416;28;20034;-90
2023/11/05 05:22:22;;;;;;;;;;;;;;;15.43;nan;97980.81;5069070;28;20033;-90
2023/11/05 05:24:47;;;;;;;;;;;;;;;15.44;nan;97978.94;5065158;28;20016;-90
2023/11/05 05:27:12;;;;;;;;;;;;;;;15.46;nan;97984.78;5072072;28;19925;-90
2023/11/05 05:29:37;;;;;;;;;;;;;;;15.45;nan;97982.44;5070380;28;19935;-90
2023/11/05 05:32:04;;;;;;;;;;;;;;;15.47;nan;97977.47;5073032;28;19985;-90
2023/11/05 05:34:30;;;;;;;;;;;;;;;15.42;nan;97978.47;5074108;28;19917;-90
2023/11/05 05:36:55;;;;;;;;;;;;;;;15.41;nan;97971.53;5075002;28;20082;-90
2023/11/05 05:39:20;;;;;;;;;;;;;;;15.37;nan;97971.44;5066111;28;20381;-90
2023/11/05 05:41:46;;;;;;;;;;;;;;;15.38;nan;97973.00;5070587;28;19917;-90
2023/11/05 05:44:11;;;;;;;;;;;;;;;15.38;nan;97972.22;5072716;28;19921;-90
2023/11/05 05:46:37;;;;;;;;;;;;;;;15.35;nan;97965.59;5066225;28;20292;-90
2023/11/05 05:49:02;;;;;;;;;;;;;;;15.31;nan;97970.13;5067836;28;20019;-90
2023/11/05 05:51:27;;;;;;;;;;;;;;;15.32;nan;97974.41;5066704;28;19921;-90
2023/11/05 05:53:53;;;;;;;;;;;;;;;15.26;nan;97970.41;5070979;28;19928;-90
2023/11/05 05:56:18;;;;;;;;;;;;;;;15.24;nan;97972.63;5072941;28;19940;-90
2023/11/05 05:58:44;;;;;;;;;;;;;;;15.21;nan;97967.94;5070121;28;20154;-91
2023/11/05 06:01:10;;;;;;;;;;;;;;;15.23;nan;97975.66;5070787;28;20044;-90
2023/11/05 06:03:35;;;;;;;;;;;;;;;15.18;nan;97973.25;5069353;28;19956;-89
2023/11/05 06:06:00;;;;;;;;;;;;;;;15.17;nan;97972.44;5071676;28;19939;-89
2023/11/05 06:08:26;;;;;;;;;;;;;;;15.15;nan;97966.63;5064858;28;19921;-90
2023/11/05 06:10:51;;;;;;;;;;;;;;;15.17;nan;97971.66;5064191;28;20000;-90
2023/11/05 06:13:19;;;;;;;;;;;;;;;15.19;nan;97977.50;5070866;28;20372;-90
2023/11/05 06:15:45;;;;;;;;;;;;;;;15.17;nan;97975.16;5069738;28;19920;-90
2023/11/05 06:18:10;;;;;;;;;;;;;;;15.14;nan;97973.16;5071070;28;20677;-90
2023/11/05 06:20:35;;;;;;;;;;;;;;;15.16;nan;97986.28;5069963;28;19917;-89
2023/11/05 06:23:01;;;;;;;;;;;;;;;15.19;nan;97988.28;5066065;28;19921;-90
2023/11/05 06:25:26;;;;;;;;;;;;;;;15.25;nan;97981.50;5071372;28;19917;-90
2023/11/05 06:27:53;;;;;;;;;;;;;;;15.31;nan;97974.75;5069295;28;19920;-90
2023/11/05 06:30:19;;;;;;;;;;;;;;;15.37;nan;97970.66;5070615;28;20384;-90
2023/11/05 06:32:44;;;;;;;;;;;;;;;15.42;nan;97973.09;5073469;28;19917;-91
2023/11/05 06:35:09;;;;;;;;;;;;;;;15.46;nan;97967.81;5072286;28;20011;-90
2023/11/05 06:37:35;;;;;;;;;;;;;;;15.49;nan;97964.41;5074741;28;19916;-89
2023/11/05 06:40:00;;;;;;;;;;;;;;;15.47;nan;97948.56;5071880;28;20506;-91
2023/11/05 06:42:26;;;;;;;;;;;;;;;15.48;nan;97950.13;5073335;28;19920;-90
2023/11/05 06:44:51;;;;;;;;;;;;;;;15.53;nan;97951.78;5073287;28;19917;-90
2023/11/05 06:47:17;;;;;;;;;;;;;;;15.54;nan;97943.34;5065016;28;19939;-90
2023/11/05 06:49:42;;;;;;;;;;;;;;;15.58;nan;97943.41;5073077;28;19929;-90
2023/11/05 06:52:07;;;;;;;;;;;;;;;15.56;nan;97945.69;5069590;28;19916;-90
2023/11/05 06:54:33;;;;;;;;;;;;;;;15.56;nan;97945.69;5073158;28;20010;-90
2023/11/05 06:56:58;;;;;;;;;;;;;;;15.54;nan;97934.44;5068067;28;20627;-90
2023/11/05 06:59:23;;;;;;;;;;;;;;;15.55;nan;97938.72;5069253;28;19923;-90
2023/11/05 07:01:49;;;;;;;;;;;;;;;15.58;nan;97935.31;5074004;28;20379;-90
2023/11/05 07:04:14;;;;;;;;;;;;;;;15.60;nan;97938.47;5072552;28;20326;-90
2023/11/05 07:06:40;;;;;;;;;;;;;;;15.55;nan;97938.72;5075011;28;19939;-90
2023/11/05 07:09:09;;;;;;;;;;;;;;;15.55;nan;97939.50;5067838;28;19916;-88
2023/11/05 07:11:34;;;;;;;;;;;;;;;15.53;nan;97951.78;5076393;28;19920;-90
2023/11/05 07:14:00;;;;;;;;;;;;;;;15.53;nan;97952.56;5067003;28;20369;-90
2023/11/05 07:16:26;;;;;;;;;;;;;;;15.56;nan;97953.78;5066803;28;20630;-90
2023/11/05 07:18:52;;;;;;;;;;;;;;;15.58;nan;97949.59;5065854;28;19920;-91
2023/11/05 07:21:17;;;;;;;;;;;;;;;15.62;nan;97939.72;5070858;28;20391;-90
2023/11/05 07:23:42;;;;;;;;;;;;;;;15.62;nan;97939.72;5071811;28;19920;-90
2023/11/05 07:26:08;;;;;;;;;;;;;;;15.70;nan;97940.66;5067684;28;19927;-90
2023/11/05 07:28:33;;;;;;;;;;;;;;;15.76;nan;97933.84;5068194;28;20388;-90
2023/11/05 07:30:58;;;;;;;;;;;;;;;15.83;nan;97944.84;5067960;28;19924;-90
2023/11/05 07:33:24;;;;;;;;;;;;;;;15.92;nan;97948.13;5073373;28;19970;-90
2023/11/05 07:35:49;;;;;;;;;;;;;;;16.02;nan;97939.50;5069125;28;19923;-91
2023/11/05 07:38:14;;;;;;;;;;;;;;;16.12;nan;97946.25;5067260;28;19921;-90
2023/11/05 07:40:40;;;;;;;;;;;;;;;16.20;nan;97945.28;5063518;28;19920;-89
2023/11/05 07:43:05;;;;;;;;;;;;;;;16.23;nan;97935.69;5069120;28;19916;-89
2023/11/05 07:45:30;;;;;;;;;;;;;;;16.23;nan;97944.56;5069322;28;20151;-90
2023/11/05 07:47:56;;;;;;;;;;;;;;;16.29;nan;97939.66;5067360;28;19924;-91
2023/11/05 07:50:23;;;;;;;;;;;;;;;16.37;nan;97936.00;5070728;28;20284;-90
2023/11/05 07:52:48;;;;;;;;;;;;;;;16.42;nan;97938.41;5064678;28;19920;-90
2023/11/05 07:55:13;;;;;;;;;;;;;;;16.51;nan;97930.84;5068884;28;19927;-90
2023/11/05 07:57:39;;;;;;;;;;;;;;;16.54;nan;97940.97;5070251;28;19916;-90
2023/11/05 08:00:05;;;;;;;;;;;;;;;16.55;nan;97942.53;5063403;28;19923;-89
2023/11/05 08:02:31;;;;;;;;;;;;;;;16.58;nan;97941.84;5067269;28;19921;-90
2023/11/05 08:04:56;;;;;;;;;;;;;;;16.68;nan;97937.78;5064537;28;19924;-90
2023/11/05 08:07:23;;;;;;;;;;;;;;;16.77;nan;97943.00;5061755;28;19917;-89
2023/11/05 08:09:48;;;;;;;;;;;;;;;16.85;nan;97940.06;5067744;28;19927;-89
2023/11/05 08:12:14;;;;;;;;;;;;;;;16.91;nan;97945.97;5067037;28;20152;-92
2023/11/05 08:14:39;;;;;;;;;;;;;;;16.96;nan;97942.97;5062710;28;19921;-92
2023/11/05 08:17:06;;;;;;;;;;;;;;;16.96;nan;97939.50;5065969;28;19963;-89
2023/11/05 08:19:31;;;;;;;;;;;;;;;16.93;nan;97935.59;5075573;28;19924;-94
2023/11/05 08:21:56;;;;;;;;;;;;;;;16.90;nan;97941.72;5073854;28;20021;-91
2023/11/05 08:24:24;;;;;;;;;;;;;;;16.89;nan;97935.53;5067230;28;19917;-88
2023/11/05 08:26:49;;;;;;;;;;;;;;;16.97;nan;97941.84;5070193;28;19927;-86
2023/11/05 08:29:14;;;;;;;;;;;;;;;17.02;nan;97948.88;5067688;28;20011;-92
2023/11/05 08:31:40;;;;;;;;;;;;;;;17.04;nan;97941.97;5071662;28;19916;-90
2023/11/05 08:34:06;;;;;;;;;;;;;;;17.12;nan;97940.19;5062882;28;20004;-94
2023/11/05 08:36:34;;;;;;;;;;;;;;;17.30;nan;97943.22;5068353;28;21956;-90
2023/11/05 08:39:00;;;;;;;;;;;;;;;17.40;nan;97945.28;5066948;28;19938;-86
2023/11/05 08:41:25;;;;;;;;;;;;;;;17.50;nan;97940.06;5071756;28;19916;-89
2023/11/05 08:43:50;;;;;;;;;;;;;;;17.61;nan;97942.19;5064668;28;19935;-88
2023/11/05 08:46:16;;;;;;;;;;;;;;;17.76;nan;97947.47;5075837;28;19978;-92
2023/11/05 08:48:41;;;;;;;;;;;;;;;17.90;nan;97940.72;5069510;28;19920;-89
2023/11/05 08:51:06;;;;;;;;;;;;;;;18.00;nan;97948.22;5062724;28;19970;-90
2023/11/05 08:53:32;;;;;;;;;;;;;;;18.09;nan;97949.53;5065396;28;20304;-93
2023/11/05 08:55:57;;;;;;;;;;;;;;;18.18;nan;97954.69;5066193;28;19924;-92
2023/11/05 08:58:22;;;;;;;;;;;;;;;18.19;nan;97950.81;5068971;28;19924;-89
2023/11/05 09:00:48;;;;;;;;;;;;;;;18.27;nan;97947.06;5070007;28;19955;-90
2023/11/05 09:03:13;;;;;;;;;;;;;;;18.43;nan;97955.78;5066192;28;19956;-90
2023/11/05 09:05:38;;;;;;;;;;;;;;;18.46;nan;97948.84;5073315;28;19987;-89
2023/11/05 09:08:04;;;;;;;;;;;;;;;18.50;nan;97948.91;5072112;28;19967;-88
2023/11/05 09:10:30;;;;;;;;;;;;;;;18.38;nan;97947.22;5066742;28;19920;-92
2023/11/05 09:12:56;;;;;;;;;;;;;;;18.36;nan;97953.00;5066211;28;20091;-89
2023/11/05 09:15:25;;;;;;;;;;;;;;;18.17;nan;97939.56;5065840;28;19962;-89
2023/11/05 09:17:50;;;;;;;;;;;;;;;18.10;nan;97947.59;5065872;28;19941;-90
2023/11/05 09:20:16;;;;;;;;;;;;;;;18.11;nan;97939.09;5066413;28;19916;-96
2023/11/05 09:22:42;;;;;;;;;;;;;;;18.12;nan;97942.59;5067634;28;20422;-94
2023/11/05 09:25:08;;;;;;;;;;;;;;;18.14;nan;97943.03;5072305;28;19963;-89
2023/11/05 09:27:37;;;;;;;;;;;;;;;18.15;nan;97943.81;5066193;28;19925;-93
2023/11/05 09:30:03;;;;;;;;;;;;;;;18.15;nan;97933.75;5064367;28;19924;-91
2023/11/05 09:32:28;;;;;;;;;;;;;;;18.17;nan;97946.94;5065932;28;19951;-89
2023/11/05 09:34:54;;;;;;;;;;;;;;;18.09;nan;97946.03;5062924;28;20494;-89
2023/11/05 09:37:19;;;;;;;;;;;;;;;18.05;nan;97945.19;5064118;28;20042;-90
2023/11/05 09:39:45;;;;;;;;;;;;;;;18.04;nan;97947.13;5067055;28;19920;-88
2023/11/05 09:42:15;;;;;;;;;;;;;;;18.05;nan;97951.41;5068651;28;20510;-87
2023/11/05 09:44:41;;;;;;;;;;;;;;;18.06;nan;97942.13;5063993;28;19982;-92
2023/11/05 09:47:09;;;;;;;;;;;;;;;18.09;nan;97946.03;5073295;28;20108;-90
2023/11/05 09:49:37;;;;;;;;;;;;;;;18.08;nan;97950.66;5069715;28;19925;-89
2023/11/05 09:52:02;;;;;;;;;;;;;;;18.05;nan;97947.91;5072652;28;20139;-86
2023/11/05 09:54:27;;;;;;;;;;;;;;;18.04;nan;97955.25;5066463;28;20380;-92
2023/11/05 09:56:53;;;;;;;;;;;;;;;18.05;nan;97947.91;5074898;28;19920;-90
2023/11/05 09:59:18;;;;;;;;;;;;;;;18.07;nan;97948.31;5067714;28;20416;-90
2023/11/05 10:01:53;;;;;;;;;;;;;;;18.08;nan;97944.47;5069458;28;19995;-92
2023/11/05 10:04:19;;;;;;;;;;;;;;;18.06;nan;97944.06;5064979;28;19971;-88
2023/11/05 10:06:44;;;;;;;;;;;;;;;18.08;nan;97945.25;5068792;28;20335;-88
2023/11/05 10:09:11;;;;;;;;;;;;;;;18.08;nan;97941.75;5061999;28;19921;-89
2023/11/05 10:11:36;;;;;;;;;;;;;;;18.12;nan;97943.38;5060655;28;19924;-88
2023/11/05 10:14:02;;;;;;;;;;;;;;;18.14;nan;97948.44;5065930;28;19932;-89
2023/11/05 10:16:27;;;;;;;;;;;;;;;18.09;nan;97946.03;5068767;28;19916;-91
2023/11/05 10:18:53;;;;;;;;;;;;;;;17.99;nan;97950.16;5067595;28;19924;-89
2023/11/05 10:21:19;;;;;;;;;;;;;;;18.02;nan;97951.34;5068806;28;19920;-89
2023/11/05 10:23:51;;;;;;;;;;;;;;;17.99;nan;97946.66;5064504;28;19916;-90
2023/11/05 10:26:25;;;;;;;;;;;;;;;18.02;nan;97948.66;5063408;28;19969;-90
2023/11/05 10:28:51;;;;;;;;;;;;;;;17.99;nan;97941.25;5066490;28;19959;-87
2023/11/05 10:31:17;;;;;;;;;;;;;;;17.97;nan;97943.53;5063242;28;19967;-89
2023/11/05 10:33:42;;;;;;;;;;;;;;;17.96;nan;97945.47;5068035;28;19963;-88
2023/11/05 10:36:08;;;;;;;;;;;;;;;17.93;nan;97948.09;5068139;28;19924;-88
2023/11/05 10:38:34;;;;;;;;;;;;;;;17.92;nan;97941.91;5066483;28;19920;-89
2023/11/05 10:40:59;;;;;;;;;;;;;;;17.87;nan;97933.31;5064580;28;19928;-88
2023/11/05 10:43:25;;;;;;;;;;;;;;;17.91;nan;97942.28;5061312;28;19970;-87
2023/11/05 10:45:51;;;;;;;;;;;;;;;17.93;nan;97938.06;5069007;28;19959;-87
2023/11/05 10:48:17;;;;;;;;;;;;;;;17.96;nan;97936.56;5062197;28;20019;-89
2023/11/05 10:50:43;;;;;;;;;;;;;;;18.04;nan;97925.47;5064481;28;20024;-87
2023/11/05 10:53:08;;;;;;;;;;;;;;;18.08;nan;97933.63;5068634;28;19920;-88
2023/11/05 10:55:35;;;;;;;;;;;;;;;18.12;nan;97929.03;5061012;28;19969;-86
2023/11/05 10:58:04;;;;;;;;;;;;;;;18.14;nan;97926.78;5062530;28;19977;-88
2023/11/05 11:00:29;;;;;;;;;;;;;;;18.16;nan;97924.47;5058560;28;20140;-87
2023/11/05 11:02:56;;;;;;;;;;;;;;;18.18;nan;97927.59;5060697;28;20375;-87
2023/11/05 11:05:41;;;;;;;;;;;;;;;18.24;nan;97926.13;5062155;28;19928;-88
2023/11/05 11:08:10;;;;;;;;;;;;;;;18.29;nan;97928.50;5061073;28;19922;-88
2023/11/05 11:10:39;;;;;;;;;;;;;;;18.30;nan;97923.84;5063411;28;19931;-89
2023/11/05 11:13:10;;;;;;;;;;;;;;;18.22;nan;97917.56;5064959;28;19917;-87
2023/11/05 11:15:36;;;;;;;;;;;;;;;18.19;nan;97921.03;5068296;28;19938;-89
2023/11/05 11:18:02;;;;;;;;;;;;;;;18.20;nan;97928.00;5067730;28;20432;-88
2023/11/05 11:20:28;;;;;;;;;;;;;;;18.19;nan;97923.72;5067902;28;19954;-89
2023/11/05 11:22:53;;;;;;;;;;;;;;;18.22;nan;97923.00;5065564;28;19920;-88
2023/11/05 11:25:19;;;;;;;;;;;;;;;18.25;nan;97924.97;5068333;28;19923;-88
2023/11/05 11:27:48;;;;;;;;;;;;;;;18.24;nan;97920.69;5062342;28;19916;-89
2023/11/05 11:30:14;;;;;;;;;;;;;;;18.21;nan;97921.44;5066759;28;19920;-88
2023/11/05 11:32:39;;;;;;;;;;;;;;;18.20;nan;97930.72;5061914;28;20419;-89
2023/11/05 11:35:06;;;;;;;;;;;;;;;18.23;nan;97929.19;5067896;28;20010;-89
2023/11/05 11:37:31;;;;;;;;;;;;;;;18.19;nan;97929.16;5070056;28;19916;-87
2023/11/05 11:39:59;;;;;;;;;;;;;;;18.20;nan;97935.34;5064273;28;19921;-87
2023/11/05 11:42:24;;;;;;;;;;;;;;;18.26;nan;97933.88;5057882;28;19955;-87
2023/11/05 11:44:50;;;;;;;;;;;;;;;18.29;nan;97939.34;5056837;28;20037;-88
2023/11/05 11:47:15;;;;;;;;;;;;;;;18.32;nan;97943.28;5063471;28;20463;-89
2023/11/05 11:49:43;;;;;;;;;;;;;;;18.29;nan;97939.34;5062667;28;19921;-88
2023/11/05 11:52:09;;;;;;;;;;;;;;;18.34;nan;97940.97;5055370;28;19981;-87
2023/11/05 11:54:34;;;;;;;;;;;;;;;18.37;nan;97942.94;5062836;28;20392;-87
2023/11/05 11:57:05;;;;;;;;;;;;;;;18.36;nan;97944.88;5059994;28;19921;-88
2023/11/05 11:59:31;;;;;;;;;;;;;;;18.38;nan;97936.38;5058919;28;19982;-87
2023/11/05 12:01:57;;;;;;;;;;;;;;;18.44;nan;97940.31;5058403;28;20669;-87
2023/11/05 12:04:25;;;;;;;;;;;;;;;18.52;nan;97941.19;5062103;28;19920;-88
2023/11/05 12:06:54;;;;;;;;;;;;;;;18.62;nan;97940.53;5061170;28;20565;-87
2023/11/05 12:09:22;;;;;;;;;;;;;;;18.67;nan;97942.94;5062293;28;19916;-88
2023/11/05 12:11:51;;;;;;;;;;;;;;;18.75;nan;97950.03;5057131;28;19928;-87
2023/11/05 12:14:23;;;;;;;;;;;;;;;18.80;nan;97940.78;5061345;28;19924;-87
2023/11/05 12:16:49;;;;;;;;;;;;;;;18.83;nan;97943.53;5060803;28;19920;-88
2023/11/05 12:19:15;;;;;;;;;;;;;;;18.88;nan;97942.44;5062378;28;19966;-87
2023/11/05 12:21:41;;;;;;;;;;;;;;;18.88;nan;97954.06;5061920;28;20015;-87
2023/11/05 12:24:09;;;;;;;;;;;;;;;18.88;nan;97954.06;5058843;28;19921;-86
2023/11/05 12:26:38;;;;;;;;;;;;;;;18.85;nan;97957.53;5065491;28;19920;-87
2023/11/05 12:29:03;;;;;;;;;;;;;;;18.82;nan;97954.75;5057353;28;19960;-89
2023/11/05 12:31:28;;;;;;;;;;;;;;;18.82;nan;97955.53;5063504;28;19968;-87
2023/11/05 12:33:54;;;;;;;;;;;;;;;18.82;nan;97955.53;5060531;28;20009;-88
2023/11/05 12:36:19;;;;;;;;;;;;;;;18.82;nan;97954.75;5068318;28;19926;-89
2023/11/05 12:38:47;;;;;;;;;;;;;;;18.84;nan;97957.88;5057407;28;20323;-87
2023/11/05 12:41:12;;;;;;;;;;;;;;;18.81;nan;97959.38;5061131;28;19917;-88
2023/11/05 12:43:37;;;;;;;;;;;;;;;18.84;nan;97958.63;5062668;28;20678;-87
2023/11/05 12:46:03;;;;;;;;;;;;;;;18.88;nan;97964.91;5058160;28;20373;-88
2023/11/05 12:48:28;;;;;;;;;;;;;;;18.94;nan;97966.13;5062317;28;19931;-88
2023/11/05 12:50:54;;;;;;;;;;;;;;;18.99;nan;97963.09;5056785;28;19952;-87
2023/11/05 12:53:22;;;;;;;;;;;;;;;18.99;nan;97960.38;5056484;28;20355;-85
2023/11/05 12:56:01;;;;;;;;;;;;;;;19.00;nan;97963.88;5066205;28;19968;-89
2023/11/05 12:58:27;;;;;;;;;;;;;;;19.05;nan;97962.78;5062229;28;19917;-88
2023/11/05 13:00:52;;;;;;;;;;;;;;;19.07;nan;97963.19;5055707;28;19923;-86